sensor_id;sensor_type;location;lat;lon;timestamp;temperature;humidity
78289;DHT22;67539;48.752;12.922;2023-02-05T00:02:03;-1.70;99.90
78289;DHT22;67539;48.752;12.922;2023-02-05T00:04:32;-1.70;99.90
78289;DHT22;67539;48.752;12.922;2023-02-05T00:07:00;-1.80;99.90
78289;DHT22;67539;48.752;12.922;2023-02-05T00:09:28;-1.80;99.90
78289;DHT22;67539;48.752;12.922;2023-02-05T00:11:57;-1.80;99.90
78289;DHT22;67539;48.752;12.922;2023-02-05T00:14:25;-1.80;99.90
78289;DHT22;67539;48.752;12.922;2023-02-05T00:16:53;-1.80;99.90
78289;DHT22;67539;48.752;12.922;2023-02-05T00:19:23;-1.80;99.90
78289;DHT22;67539;48.752;12.922;2023-02-05T00:21:51;-1.80;99.90
78289;DHT22;67539;48.752;12.922;2023-02-05T00:24:18;-1.90;99.90
78289;DHT22;67539;48.752;12.922;2023-02-05T00:26:46;-1.90;99.90
78289;DHT22;67539;48.752;12.922;2023-02-05T00:29:14;-1.90;99.90
78289;DHT22;67539;48.752;12.922;2023-02-05T00:31:42;-1.90;99.90
78289;DHT22;67539;48.752;12.922;2023-02-05T00:34:11;-1.90;99.90
78289;DHT22;67539;48.752;12.922;2023-02-05T00:36:40;-1.80;99.90
78289;DHT22;67539;48.752;12.922;2023-02-05T00:39:08;-1.80;99.90
78289;DHT22;67539;48.752;12.922;2023-02-05T00:41:37;-1.80;99.90
78289;DHT22;67539;48.752;12.922;2023-02-05T00:44:05;-1.80;99.90
78289;DHT22;67539;48.752;12.922;2023-02-05T00:46:33;-1.80;99.90
78289;DHT22;67539;48.752;12.922;2023-02-05T00:49:01;-1.80;99.90
78289;DHT22;67539;48.752;12.922;2023-02-05T00:51:29;-1.80;99.90
78289;DHT22;67539;48.752;12.922;2023-02-05T00:53:59;-1.80;99.90
78289;DHT22;67539;48.752;12.922;2023-02-05T00:56:27;-1.80;99.90
78289;DHT22;67539;48.752;12.922;2023-02-05T00:58:55;-1.80;99.90
78289;DHT22;67539;48.752;12.922;2023-02-05T01:01:23;-1.80;99.90
78289;DHT22;67539;48.752;12.922;2023-02-05T01:03:52;-1.80;99.90
78289;DHT22;67539;48.752;12.922;2023-02-05T01:06:20;-1.80;99.90
78289;DHT22;67539;48.752;12.922;2023-02-05T01:08:48;-1.90;99.90
78289;DHT22;67539;48.752;12.922;2023-02-05T01:11:17;-1.90;99.90
78289;DHT22;67539;48.752;12.922;2023-02-05T01:13:46;-2.00;99.90
78289;DHT22;67539;48.752;12.922;2023-02-05T01:16:14;-2.10;99.90
78289;DHT22;67539;48.752;12.922;2023-02-05T01:18:42;-2.10;99.90
78289;DHT22;67539;48.752;12.922;2023-02-05T01:21:10;-2.10;99.90
78289;DHT22;67539;48.752;12.922;2023-02-05T01:23:38;-2.10;99.90
78289;DHT22;67539;48.752;12.922;2023-02-05T01:26:06;-2.20;99.90
78289;DHT22;67539;48.752;12.922;2023-02-05T01:28:36;-2.20;99.90
78289;DHT22;67539;48.752;12.922;2023-02-05T01:31:04;-2.30;99.90
78289;DHT22;67539;48.752;12.922;2023-02-05T01:33:32;-2.30;99.90
78289;DHT22;67539;48.752;12.922;2023-02-05T01:36:00;-2.30;99.90
78289;DHT22;67539;48.752;12.922;2023-02-05T01:38:28;-2.50;99.90
78289;DHT22;67539;48.752;12.922;2023-02-05T01:40:56;-2.50;99.90
78289;DHT22;67539;48.752;12.922;2023-02-05T01:43:25;-2.50;99.90
78289;DHT22;67539;48.752;12.922;2023-02-05T01:46:15;-2.60;99.90
78289;DHT22;67539;48.752;12.922;2023-02-05T01:48:48;-2.70;99.90
78289;DHT22;67539;48.752;12.922;2023-02-05T01:51:17;-2.70;99.90
78289;DHT22;67539;48.752;12.922;2023-02-05T01:53:46;-2.70;99.90
78289;DHT22;67539;48.752;12.922;2023-02-05T01:56:18;-2.80;99.90
78289;DHT22;67539;48.752;12.922;2023-02-05T01:58:50;-2.80;99.90
78289;DHT22;67539;48.752;12.922;2023-02-05T02:01:21;-2.90;99.90
78289;DHT22;67539;48.752;12.922;2023-02-05T02:03:50;-2.90;99.90
78289;DHT22;67539;48.752;12.922;2023-02-05T02:06:20;-2.90;99.90
78289;DHT22;67539;48.752;12.922;2023-02-05T02:08:48;-2.90;99.90
78289;DHT22;67539;48.752;12.922;2023-02-05T02:11:17;-2.90;99.90
78289;DHT22;67539;48.752;12.922;2023-02-05T02:13:49;-2.90;99.90
78289;DHT22;67539;48.752;12.922;2023-02-05T02:16:18;-3.00;99.90
78289;DHT22;67539;48.752;12.922;2023-02-05T02:18:48;-3.00;99.90
78289;DHT22;67539;48.752;12.922;2023-02-05T02:21:38;-3.00;99.90
78289;DHT22;67539;48.752;12.922;2023-02-05T02:24:36;-3.10;99.90
78289;DHT22;67539;48.752;12.922;2023-02-05T02:27:34;-3.10;99.90
78289;DHT22;67539;48.752;12.922;2023-02-05T02:30:08;-3.10;99.90
78289;DHT22;67539;48.752;12.922;2023-02-05T02:32:40;-3.10;99.90
78289;DHT22;67539;48.752;12.922;2023-02-05T02:35:14;-3.10;99.90
78289;DHT22;67539;48.752;12.922;2023-02-05T02:37:47;-3.10;99.90
78289;DHT22;67539;48.752;12.922;2023-02-05T02:40:20;-3.20;99.90
78289;DHT22;67539;48.752;12.922;2023-02-05T02:42:54;-3.20;99.90
78289;DHT22;67539;48.752;12.922;2023-02-05T02:45:26;-3.20;99.90
78289;DHT22;67539;48.752;12.922;2023-02-05T02:47:57;-3.30;99.90
78289;DHT22;67539;48.752;12.922;2023-02-05T02:50:29;-3.30;99.90
78289;DHT22;67539;48.752;12.922;2023-02-05T02:53:02;-3.40;99.90
78289;DHT22;67539;48.752;12.922;2023-02-05T02:55:35;-3.40;99.90
78289;DHT22;67539;48.752;12.922;2023-02-05T02:58:08;-3.40;99.90
78289;DHT22;67539;48.752;12.922;2023-02-05T03:00:38;-3.50;99.90
78289;DHT22;67539;48.752;12.922;2023-02-05T03:03:10;-3.50;99.90
78289;DHT22;67539;48.752;12.922;2023-02-05T03:05:41;-3.50;99.90
78289;DHT22;67539;48.752;12.922;2023-02-05T03:08:14;-3.60;99.90
78289;DHT22;67539;48.752;12.922;2023-02-05T03:10:47;-3.60;99.90
78289;DHT22;67539;48.752;12.922;2023-02-05T03:13:19;-3.60;99.90
78289;DHT22;67539;48.752;12.922;2023-02-05T03:15:53;-3.60;99.90
78289;DHT22;67539;48.752;12.922;2023-02-05T03:18:22;-3.60;99.90
78289;DHT22;67539;48.752;12.922;2023-02-05T03:20:53;-3.70;99.90
78289;DHT22;67539;48.752;12.922;2023-02-05T03:23:22;-3.70;99.90
78289;DHT22;67539;48.752;12.922;2023-02-05T03:25:51;-3.70;99.90
78289;DHT22;67539;48.752;12.922;2023-02-05T03:28:26;-3.70;99.90
78289;DHT22;67539;48.752;12.922;2023-02-05T03:31:04;-3.70;99.90
78289;DHT22;67539;48.752;12.922;2023-02-05T03:33:42;-3.80;99.90
78289;DHT22;67539;48.752;12.922;2023-02-05T03:36:25;-3.80;99.90
78289;DHT22;67539;48.752;12.922;2023-02-05T03:39:15;-3.80;99.90
78289;DHT22;67539;48.752;12.922;2023-02-05T03:41:52;-3.80;99.90
78289;DHT22;67539;48.752;12.922;2023-02-05T03:44:51;-3.90;99.90
78289;DHT22;67539;48.752;12.922;2023-02-05T03:47:31;-3.90;99.90
78289;DHT22;67539;48.752;12.922;2023-02-05T03:50:10;-3.90;99.90
78289;DHT22;67539;48.752;12.922;2023-02-05T03:52:42;-3.90;99.90
78289;DHT22;67539;48.752;12.922;2023-02-05T03:55:14;-4.00;99.90
78289;DHT22;67539;48.752;12.922;2023-02-05T03:57:50;-4.00;99.90
78289;DHT22;67539;48.752;12.922;2023-02-05T04:00:23;-4.00;99.90
78289;DHT22;67539;48.752;12.922;2023-02-05T04:02:53;-4.00;99.90
78289;DHT22;67539;48.752;12.922;2023-02-05T04:05:25;-4.00;99.90
78289;DHT22;67539;48.752;12.922;2023-02-05T04:07:55;-4.00;99.90
78289;DHT22;67539;48.752;12.922;2023-02-05T04:10:28;-4.00;99.90
78289;DHT22;67539;48.752;12.922;2023-02-05T04:12:59;-4.00;99.90
78289;DHT22;67539;48.752;12.922;2023-02-05T04:15:29;-4.10;99.90
78289;DHT22;67539;48.752;12.922;2023-02-05T04:18:00;-4.10;99.90
78289;DHT22;67539;48.752;12.922;2023-02-05T04:20:29;-4.10;99.90
78289;DHT22;67539;48.752;12.922;2023-02-05T04:22:58;-4.10;99.90
78289;DHT22;67539;48.752;12.922;2023-02-05T04:25:28;-4.10;99.90
78289;DHT22;67539;48.752;12.922;2023-02-05T04:27:59;-4.10;99.90
78289;DHT22;67539;48.752;12.922;2023-02-05T04:30:30;-4.10;99.90
78289;DHT22;67539;48.752;12.922;2023-02-05T04:32:59;-4.10;99.90
78289;DHT22;67539;48.752;12.922;2023-02-05T04:35:28;-4.10;99.90
78289;DHT22;67539;48.752;12.922;2023-02-05T04:37:55;-4.20;99.90
78289;DHT22;67539;48.752;12.922;2023-02-05T04:40:23;-4.20;99.90
78289;DHT22;67539;48.752;12.922;2023-02-05T04:42:51;-4.30;99.90
78289;DHT22;67539;48.752;12.922;2023-02-05T04:45:19;-4.30;99.90
78289;DHT22;67539;48.752;12.922;2023-02-05T04:47:49;-4.30;99.90
78289;DHT22;67539;48.752;12.922;2023-02-05T04:50:17;-4.30;99.90
78289;DHT22;67539;48.752;12.922;2023-02-05T04:52:45;-4.30;99.90
78289;DHT22;67539;48.752;12.922;2023-02-05T04:55:13;-4.30;99.90
78289;DHT22;67539;48.752;12.922;2023-02-05T04:57:41;-4.30;99.90
78289;DHT22;67539;48.752;12.922;2023-02-05T05:00:10;-4.30;99.90
78289;DHT22;67539;48.752;12.922;2023-02-05T05:02:38;-4.30;99.90
78289;DHT22;67539;48.752;12.922;2023-02-05T05:05:07;-4.30;99.90
78289;DHT22;67539;48.752;12.922;2023-02-05T05:07:37;-4.30;99.90
78289;DHT22;67539;48.752;12.922;2023-02-05T05:10:06;-4.30;99.90
78289;DHT22;67539;48.752;12.922;2023-02-05T05:12:35;-4.30;99.90
78289;DHT22;67539;48.752;12.922;2023-02-05T05:15:04;-4.40;99.90
78289;DHT22;67539;48.752;12.922;2023-02-05T05:17:34;-4.40;99.90
78289;DHT22;67539;48.752;12.922;2023-02-05T05:20:02;-4.40;99.90
78289;DHT22;67539;48.752;12.922;2023-02-05T05:22:32;-4.40;99.90
78289;DHT22;67539;48.752;12.922;2023-02-05T05:25:00;-4.40;99.90
78289;DHT22;67539;48.752;12.922;2023-02-05T05:27:28;-4.40;99.90
78289;DHT22;67539;48.752;12.922;2023-02-05T05:29:56;-4.40;99.90
78289;DHT22;67539;48.752;12.922;2023-02-05T05:32:24;-4.40;99.90
78289;DHT22;67539;48.752;12.922;2023-02-05T05:34:52;-4.50;99.90
78289;DHT22;67539;48.752;12.922;2023-02-05T05:37:22;-4.40;99.90
78289;DHT22;67539;48.752;12.922;2023-02-05T05:39:52;-4.40;99.90
78289;DHT22;67539;48.752;12.922;2023-02-05T05:42:37;-4.40;99.90
78289;DHT22;67539;48.752;12.922;2023-02-05T05:45:23;-4.40;99.90
78289;DHT22;67539;48.752;12.922;2023-02-05T05:47:51;-4.40;99.90
78289;DHT22;67539;48.752;12.922;2023-02-05T05:50:19;-4.40;99.90
78289;DHT22;67539;48.752;12.922;2023-02-05T05:52:47;-4.30;99.90
78289;DHT22;67539;48.752;12.922;2023-02-05T05:55:16;-4.30;99.90
78289;DHT22;67539;48.752;12.922;2023-02-05T05:57:44;-4.30;99.90
78289;DHT22;67539;48.752;12.922;2023-02-05T06:00:13;-4.30;99.90
78289;DHT22;67539;48.752;12.922;2023-02-05T06:02:41;-4.20;99.90
78289;DHT22;67539;48.752;12.922;2023-02-05T06:05:11;-4.20;99.90
78289;DHT22;67539;48.752;12.922;2023-02-05T06:07:39;-4.20;99.90
78289;DHT22;67539;48.752;12.922;2023-02-05T06:10:07;-4.10;99.90
78289;DHT22;67539;48.752;12.922;2023-02-05T06:12:37;-4.10;99.90
78289;DHT22;67539;48.752;12.922;2023-02-05T06:15:06;-4.00;99.90
78289;DHT22;67539;48.752;12.922;2023-02-05T06:17:34;-4.00;99.90
78289;DHT22;67539;48.752;12.922;2023-02-05T06:20:02;-4.00;99.90
78289;DHT22;67539;48.752;12.922;2023-02-05T06:22:30;-4.00;99.90
78289;DHT22;67539;48.752;12.922;2023-02-05T06:24:57;-3.90;99.90
78289;DHT22;67539;48.752;12.922;2023-02-05T06:27:25;-3.90;99.90
78289;DHT22;67539;48.752;12.922;2023-02-05T06:29:55;-3.90;99.90
78289;DHT22;67539;48.752;12.922;2023-02-05T06:32:23;-3.90;99.90
78289;DHT22;67539;48.752;12.922;2023-02-05T06:34:52;-3.90;99.90
78289;DHT22;67539;48.752;12.922;2023-02-05T06:37:20;-3.80;99.90
78289;DHT22;67539;48.752;12.922;2023-02-05T06:40:11;-3.80;99.90
78289;DHT22;67539;48.752;12.922;2023-02-05T06:42:41;-3.80;99.90
78289;DHT22;67539;48.752;12.922;2023-02-05T06:45:10;-3.80;99.90
78289;DHT22;67539;48.752;12.922;2023-02-05T06:47:38;-3.70;99.90
78289;DHT22;67539;48.752;12.922;2023-02-05T06:50:07;-3.70;99.90
78289;DHT22;67539;48.752;12.922;2023-02-05T06:52:35;-3.70;99.90
78289;DHT22;67539;48.752;12.922;2023-02-05T06:55:03;-3.60;99.90
78289;DHT22;67539;48.752;12.922;2023-02-05T06:57:31;-3.60;99.90
78289;DHT22;67539;48.752;12.922;2023-02-05T06:59:59;-3.60;99.90
78289;DHT22;67539;48.752;12.922;2023-02-05T07:02:28;-3.50;99.90
78289;DHT22;67539;48.752;12.922;2023-02-05T07:04:56;-3.50;99.90
78289;DHT22;67539;48.752;12.922;2023-02-05T07:07:24;-3.40;99.90
78289;DHT22;67539;48.752;12.922;2023-02-05T07:09:52;-3.40;99.90
78289;DHT22;67539;48.752;12.922;2023-02-05T07:12:20;-3.30;99.90
78289;DHT22;67539;48.752;12.922;2023-02-05T07:14:48;-3.30;99.90
78289;DHT22;67539;48.752;12.922;2023-02-05T07:17:16;-3.30;99.90
78289;DHT22;67539;48.752;12.922;2023-02-05T07:19:46;-3.20;99.90
78289;DHT22;67539;48.752;12.922;2023-02-05T07:22:14;-3.10;99.90
78289;DHT22;67539;48.752;12.922;2023-02-05T07:24:42;-3.10;99.90
78289;DHT22;67539;48.752;12.922;2023-02-05T07:27:10;-3.00;99.90
78289;DHT22;67539;48.752;12.922;2023-02-05T07:29:38;-3.00;99.90
78289;DHT22;67539;48.752;12.922;2023-02-05T07:32:06;-3.00;99.90
78289;DHT22;67539;48.752;12.922;2023-02-05T07:34:34;-2.90;99.90
78289;DHT22;67539;48.752;12.922;2023-02-05T07:37:03;-2.90;99.90
78289;DHT22;67539;48.752;12.922;2023-02-05T07:39:31;-2.80;99.90
78289;DHT22;67539;48.752;12.922;2023-02-05T07:42:00;-2.80;99.90
78289;DHT22;67539;48.752;12.922;2023-02-05T07:44:36;-2.70;99.90
78289;DHT22;67539;48.752;12.922;2023-02-05T07:47:04;-2.60;99.90
78289;DHT22;67539;48.752;12.922;2023-02-05T07:49:32;-2.60;99.90
78289;DHT22;67539;48.752;12.922;2023-02-05T07:52:00;-2.50;99.90
78289;DHT22;67539;48.752;12.922;2023-02-05T07:54:29;-2.40;99.90
78289;DHT22;67539;48.752;12.922;2023-02-05T07:56:57;-2.40;99.90
78289;DHT22;67539;48.752;12.922;2023-02-05T07:59:26;-2.40;99.90
78289;DHT22;67539;48.752;12.922;2023-02-05T08:01:54;-2.30;99.90
78289;DHT22;67539;48.752;12.922;2023-02-05T08:04:22;-2.20;99.90
78289;DHT22;67539;48.752;12.922;2023-02-05T08:06:50;-2.20;99.90
78289;DHT22;67539;48.752;12.922;2023-02-05T08:09:18;-2.10;99.90
78289;DHT22;67539;48.752;12.922;2023-02-05T08:11:47;-2.00;99.90
78289;DHT22;67539;48.752;12.922;2023-02-05T08:14:15;-1.90;99.90
78289;DHT22;67539;48.752;12.922;2023-02-05T08:16:43;-1.80;99.90
78289;DHT22;67539;48.752;12.922;2023-02-05T08:19:14;-1.80;99.90
78289;DHT22;67539;48.752;12.922;2023-02-05T08:21:42;-1.80;99.90
78289;DHT22;67539;48.752;12.922;2023-02-05T08:24:10;-1.70;99.90
78289;DHT22;67539;48.752;12.922;2023-02-05T08:26:38;-1.70;99.90
78289;DHT22;67539;48.752;12.922;2023-02-05T08:29:08;-1.60;99.90
78289;DHT22;67539;48.752;12.922;2023-02-05T08:31:36;-1.50;99.90
78289;DHT22;67539;48.752;12.922;2023-02-05T08:34:04;-1.40;99.90
78289;DHT22;67539;48.752;12.922;2023-02-05T08:36:32;-1.40;99.90
78289;DHT22;67539;48.752;12.922;2023-02-05T08:39:00;-1.30;99.90
78289;DHT22;67539;48.752;12.922;2023-02-05T08:41:28;-1.20;99.90
78289;DHT22;67539;48.752;12.922;2023-02-05T08:43:56;-1.10;99.90
78289;DHT22;67539;48.752;12.922;2023-02-05T08:46:25;-1.10;99.90
78289;DHT22;67539;48.752;12.922;2023-02-05T08:49:09;-1.00;99.90
78289;DHT22;67539;48.752;12.922;2023-02-05T08:51:37;-0.90;99.90
78289;DHT22;67539;48.752;12.922;2023-02-05T08:54:05;-0.80;99.90
78289;DHT22;67539;48.752;12.922;2023-02-05T08:56:38;-0.80;99.90
78289;DHT22;67539;48.752;12.922;2023-02-05T08:59:07;-0.70;99.90
78289;DHT22;67539;48.752;12.922;2023-02-05T09:01:47;-0.60;99.90
78289;DHT22;67539;48.752;12.922;2023-02-05T09:04:18;-0.50;99.90
78289;DHT22;67539;48.752;12.922;2023-02-05T09:06:47;-0.40;99.90
78289;DHT22;67539;48.752;12.922;2023-02-05T09:09:15;-0.30;99.90
78289;DHT22;67539;48.752;12.922;2023-02-05T09:11:44;-0.30;99.90
78289;DHT22;67539;48.752;12.922;2023-02-05T09:14:13;-0.20;99.90
78289;DHT22;67539;48.752;12.922;2023-02-05T09:16:42;-0.20;99.90
78289;DHT22;67539;48.752;12.922;2023-02-05T09:19:10;-0.20;99.90
78289;DHT22;67539;48.752;12.922;2023-02-05T09:21:38;-0.20;99.90
78289;DHT22;67539;48.752;12.922;2023-02-05T09:24:07;-0.20;99.90
78289;DHT22;67539;48.752;12.922;2023-02-05T09:26:35;-0.10;99.70
78289;DHT22;67539;48.752;12.922;2023-02-05T09:29:03;-0.10;99.90
78289;DHT22;67539;48.752;12.922;2023-02-05T09:31:30;0.00;99.90
78289;DHT22;67539;48.752;12.922;2023-02-05T09:34:02;0.10;99.90
78289;DHT22;67539;48.752;12.922;2023-02-05T09:36:30;0.10;99.90
78289;DHT22;67539;48.752;12.922;2023-02-05T09:38:58;0.20;99.80
78289;DHT22;67539;48.752;12.922;2023-02-05T09:41:46;0.20;99.80
78289;DHT22;67539;48.752;12.922;2023-02-05T09:44:20;0.20;99.60
78289;DHT22;67539;48.752;12.922;2023-02-05T09:46:57;0.20;99.70
78289;DHT22;67539;48.752;12.922;2023-02-05T09:49:31;0.30;99.60
78289;DHT22;67539;48.752;12.922;2023-02-05T09:52:02;0.30;99.30
78289;DHT22;67539;48.752;12.922;2023-02-05T09:54:35;0.40;99.20
78289;DHT22;67539;48.752;12.922;2023-02-05T09:57:09;0.40;99.20
78289;DHT22;67539;48.752;12.922;2023-02-05T09:59:42;0.40;98.90
78289;DHT22;67539;48.752;12.922;2023-02-05T10:02:21;0.50;99.50
78289;DHT22;67539;48.752;12.922;2023-02-05T10:04:52;0.60;98.90
78289;DHT22;67539;48.752;12.922;2023-02-05T10:07:25;0.70;98.80
78289;DHT22;67539;48.752;12.922;2023-02-05T10:10:21;0.80;98.40
78289;DHT22;67539;48.752;12.922;2023-02-05T10:16:16;0.90;98.60
78289;DHT22;67539;48.752;12.922;2023-02-05T10:18:59;1.00;98.40
78289;DHT22;67539;48.752;12.922;2023-02-05T10:21:44;1.10;98.00
78289;DHT22;67539;48.752;12.922;2023-02-05T10:24:26;1.20;98.20
78289;DHT22;67539;48.752;12.922;2023-02-05T10:27:00;1.30;98.20
78289;DHT22;67539;48.752;12.922;2023-02-05T10:29:37;1.30;97.70
78289;DHT22;67539;48.752;12.922;2023-02-05T10:32:15;1.30;97.40
78289;DHT22;67539;48.752;12.922;2023-02-05T10:34:58;1.40;97.70
78289;DHT22;67539;48.752;12.922;2023-02-05T10:37:35;1.40;98.10
78289;DHT22;67539;48.752;12.922;2023-02-05T10:40:13;1.50;97.70
78289;DHT22;67539;48.752;12.922;2023-02-05T10:42:45;1.60;97.60
78289;DHT22;67539;48.752;12.922;2023-02-05T10:45:17;1.70;97.70
78289;DHT22;67539;48.752;12.922;2023-02-05T10:47:55;1.80;97.40
78289;DHT22;67539;48.752;12.922;2023-02-05T10:50:31;1.80;95.20
78289;DHT22;67539;48.752;12.922;2023-02-05T10:53:04;1.80;95.50
78289;DHT22;67539;48.752;12.922;2023-02-05T10:55:32;1.70;94.50
78289;DHT22;67539;48.752;12.922;2023-02-05T10:58:01;1.80;94.80
78289;DHT22;67539;48.752;12.922;2023-02-05T11:00:43;1.90;95.00
78289;DHT22;67539;48.752;12.922;2023-02-05T11:03:15;2.00;95.50
78289;DHT22;67539;48.752;12.922;2023-02-05T11:05:44;2.10;95.20
78289;DHT22;67539;48.752;12.922;2023-02-05T11:08:34;2.20;94.90
78289;DHT22;67539;48.752;12.922;2023-02-05T11:11:03;2.30;94.10
78289;DHT22;67539;48.752;12.922;2023-02-05T11:13:33;2.30;94.10
78289;DHT22;67539;48.752;12.922;2023-02-05T11:16:06;2.40;94.40
78289;DHT22;67539;48.752;12.922;2023-02-05T11:18:37;2.50;94.20
78289;DHT22;67539;48.752;12.922;2023-02-05T11:21:07;2.60;92.80
78289;DHT22;67539;48.752;12.922;2023-02-05T11:23:38;2.70;92.80
78289;DHT22;67539;48.752;12.922;2023-02-05T11:26:13;2.80;92.80
78289;DHT22;67539;48.752;12.922;2023-02-05T11:28:43;2.90;92.00
78289;DHT22;67539;48.752;12.922;2023-02-05T11:31:23;3.00;92.40
78289;DHT22;67539;48.752;12.922;2023-02-05T11:34:09;3.10;92.10
78289;DHT22;67539;48.752;12.922;2023-02-05T11:36:39;3.20;92.30
78289;DHT22;67539;48.752;12.922;2023-02-05T11:39:28;3.30;91.80
78289;DHT22;67539;48.752;12.922;2023-02-05T11:42:07;3.50;90.90
78289;DHT22;67539;48.752;12.922;2023-02-05T11:44:46;3.50;90.20
78289;DHT22;67539;48.752;12.922;2023-02-05T11:47:22;3.50;90.00
78289;DHT22;67539;48.752;12.922;2023-02-05T11:49:51;3.60;90.30
78289;DHT22;67539;48.752;12.922;2023-02-05T11:52:24;3.70;90.50
78289;DHT22;67539;48.752;12.922;2023-02-05T11:54:54;3.80;89.40
78289;DHT22;67539;48.752;12.922;2023-02-05T11:57:30;3.90;89.30
78289;DHT22;67539;48.752;12.922;2023-02-05T12:00:00;4.00;85.40
78289;DHT22;67539;48.752;12.922;2023-02-05T12:02:32;4.10;88.00
78289;DHT22;67539;48.752;12.922;2023-02-05T12:05:18;4.20;87.80
78289;DHT22;67539;48.752;12.922;2023-02-05T12:07:49;4.20;86.50
78289;DHT22;67539;48.752;12.922;2023-02-05T12:10:27;4.20;86.80
78289;DHT22;67539;48.752;12.922;2023-02-05T12:13:03;4.20;85.80
78289;DHT22;67539;48.752;12.922;2023-02-05T12:15:38;4.30;85.30
78289;DHT22;67539;48.752;12.922;2023-02-05T12:18:17;4.30;83.10
78289;DHT22;67539;48.752;12.922;2023-02-05T12:21:03;4.30;82.00
78289;DHT22;67539;48.752;12.922;2023-02-05T12:23:44;4.20;82.00
78289;DHT22;67539;48.752;12.922;2023-02-05T12:26:28;4.20;83.20
78289;DHT22;67539;48.752;12.922;2023-02-05T12:29:12;4.10;82.10
78289;DHT22;67539;48.752;12.922;2023-02-05T12:31:50;4.10;83.40
78289;DHT22;67539;48.752;12.922;2023-02-05T12:34:30;4.10;83.00
78289;DHT22;67539;48.752;12.922;2023-02-05T12:37:09;4.10;82.10
78289;DHT22;67539;48.752;12.922;2023-02-05T12:39:45;4.10;82.40
78289;DHT22;67539;48.752;12.922;2023-02-05T12:42:23;4.10;80.50
78289;DHT22;67539;48.752;12.922;2023-02-05T12:45:12;4.10;80.20
78289;DHT22;67539;48.752;12.922;2023-02-05T12:48:03;4.10;76.30
78289;DHT22;67539;48.752;12.922;2023-02-05T12:50:48;4.10;79.50
78289;DHT22;67539;48.752;12.922;2023-02-05T12:53:38;4.10;79.10
78289;DHT22;67539;48.752;12.922;2023-02-05T12:56:21;4.20;77.50
78289;DHT22;67539;48.752;12.922;2023-02-05T12:58:56;4.30;78.00
78289;DHT22;67539;48.752;12.922;2023-02-05T13:01:34;4.30;77.20
78289;DHT22;67539;48.752;12.922;2023-02-05T13:04:05;4.30;75.20
78289;DHT22;67539;48.752;12.922;2023-02-05T13:06:36;4.40;75.90
78289;DHT22;67539;48.752;12.922;2023-02-05T13:09:13;4.40;76.80
78289;DHT22;67539;48.752;12.922;2023-02-05T13:11:46;4.50;76.80
78289;DHT22;67539;48.752;12.922;2023-02-05T13:14:22;4.50;76.20
78289;DHT22;67539;48.752;12.922;2023-02-05T13:16:53;4.60;72.90
78289;DHT22;67539;48.752;12.922;2023-02-05T13:19:25;4.60;73.00
78289;DHT22;67539;48.752;12.922;2023-02-05T13:21:56;4.60;68.90
78289;DHT22;67539;48.752;12.922;2023-02-05T13:24:45;4.60;69.70
78289;DHT22;67539;48.752;12.922;2023-02-05T13:27:39;4.60;72.30
78289;DHT22;67539;48.752;12.922;2023-02-05T13:30:30;4.50;72.30
78289;DHT22;67539;48.752;12.922;2023-02-05T13:33:03;4.60;72.70
78289;DHT22;67539;48.752;12.922;2023-02-05T13:35:34;4.60;71.90
78289;DHT22;67539;48.752;12.922;2023-02-05T13:38:39;4.60;69.20
78289;DHT22;67539;48.752;12.922;2023-02-05T13:41:36;4.50;71.10
78289;DHT22;67539;48.752;12.922;2023-02-05T13:44:32;4.50;71.10
78289;DHT22;67539;48.752;12.922;2023-02-05T13:47:30;4.60;68.50
78289;DHT22;67539;48.752;12.922;2023-02-05T13:50:29;4.40;70.00
78289;DHT22;67539;48.752;12.922;2023-02-05T13:53:14;4.40;70.10
78289;DHT22;67539;48.752;12.922;2023-02-05T13:56:09;4.30;70.60
78289;DHT22;67539;48.752;12.922;2023-02-05T13:58:48;4.40;71.60
78289;DHT22;67539;48.752;12.922;2023-02-05T14:01:21;4.40;71.70
78289;DHT22;67539;48.752;12.922;2023-02-05T14:03:58;4.40;70.90
78289;DHT22;67539;48.752;12.922;2023-02-05T14:06:29;4.40;70.70
78289;DHT22;67539;48.752;12.922;2023-02-05T14:09:02;4.30;70.50
78289;DHT22;67539;48.752;12.922;2023-02-05T14:11:45;4.30;71.40
78289;DHT22;67539;48.752;12.922;2023-02-05T14:14:26;4.40;71.20
78289;DHT22;67539;48.752;12.922;2023-02-05T14:16:56;4.40;70.20
78289;DHT22;67539;48.752;12.922;2023-02-05T14:19:49;4.30;68.60
78289;DHT22;67539;48.752;12.922;2023-02-05T14:22:36;4.30;69.30
78289;DHT22;67539;48.752;12.922;2023-02-05T14:28:33;4.30;69.70
78289;DHT22;67539;48.752;12.922;2023-02-05T14:31:02;4.20;68.30
78289;DHT22;67539;48.752;12.922;2023-02-05T14:33:34;4.20;68.80
78289;DHT22;67539;48.752;12.922;2023-02-05T14:39:19;4.20;69.50
78289;DHT22;67539;48.752;12.922;2023-02-05T14:41:51;4.20;70.30
78289;DHT22;67539;48.752;12.922;2023-02-05T14:44:24;4.20;69.10
78289;DHT22;67539;48.752;12.922;2023-02-05T14:46:56;4.10;68.60
78289;DHT22;67539;48.752;12.922;2023-02-05T14:49:27;4.10;69.70
78289;DHT22;67539;48.752;12.922;2023-02-05T14:51:59;4.10;69.80
78289;DHT22;67539;48.752;12.922;2023-02-05T14:54:31;4.10;70.90
78289;DHT22;67539;48.752;12.922;2023-02-05T14:57:10;4.00;70.30
78289;DHT22;67539;48.752;12.922;2023-02-05T14:59:41;3.90;70.20
78289;DHT22;67539;48.752;12.922;2023-02-05T15:05:26;3.70;70.80
78289;DHT22;67539;48.752;12.922;2023-02-05T15:08:04;3.70;71.00
78289;DHT22;67539;48.752;12.922;2023-02-05T15:10:42;3.60;71.60
78289;DHT22;67539;48.752;12.922;2023-02-05T15:13:13;3.50;72.20
78289;DHT22;67539;48.752;12.922;2023-02-05T15:18:52;3.40;73.60
78289;DHT22;67539;48.752;12.922;2023-02-05T15:21:24;3.40;73.60
78289;DHT22;67539;48.752;12.922;2023-02-05T15:24:01;3.40;74.30
78289;DHT22;67539;48.752;12.922;2023-02-05T15:26:38;3.30;74.30
78289;DHT22;67539;48.752;12.922;2023-02-05T15:29:13;3.20;74.60
78289;DHT22;67539;48.752;12.922;2023-02-05T15:31:45;3.20;75.40
78289;DHT22;67539;48.752;12.922;2023-02-05T15:34:26;3.10;75.00
78289;DHT22;67539;48.752;12.922;2023-02-05T15:37:00;3.00;75.40
78289;DHT22;67539;48.752;12.922;2023-02-05T15:39:44;3.00;75.50
78289;DHT22;67539;48.752;12.922;2023-02-05T15:42:16;3.00;75.40
78289;DHT22;67539;48.752;12.922;2023-02-05T15:44:46;3.00;75.70
78289;DHT22;67539;48.752;12.922;2023-02-05T15:47:18;2.90;75.20
78289;DHT22;67539;48.752;12.922;2023-02-05T15:49:49;2.80;74.00
78289;DHT22;67539;48.752;12.922;2023-02-05T15:52:20;2.80;74.40
78289;DHT22;67539;48.752;12.922;2023-02-05T15:54:52;2.70;74.40
78289;DHT22;67539;48.752;12.922;2023-02-05T15:57:23;2.70;74.40
78289;DHT22;67539;48.752;12.922;2023-02-05T15:59:53;2.60;74.60
78289;DHT22;67539;48.752;12.922;2023-02-05T16:02:24;2.60;74.90
78289;DHT22;67539;48.752;12.922;2023-02-05T16:04:54;2.50;74.20
78289;DHT22;67539;48.752;12.922;2023-02-05T16:07:26;2.40;74.30
78289;DHT22;67539;48.752;12.922;2023-02-05T16:09:58;2.30;74.60
78289;DHT22;67539;48.752;12.922;2023-02-05T16:12:26;2.20;74.60
78289;DHT22;67539;48.752;12.922;2023-02-05T16:14:57;2.20;74.40